Warning: Javascript must be enabled to use all the features on this page!


Page Loading - Please Wait...

Click to hideNews Bulletins

Peak Streamflow for the Nation

USGS 04192500 Maumee River near Defiance OH

Defiance County, Ohio
Hydrologic Unit Code 04100009
Latitude  41°17'31", Longitude  84°16'52" NAD27
Drainage area 5,545  square miles
Contributing drainage area 5,545  square miles
Gage datum 657.86 feet above NAVD88
Output formats
Table
Graph
Tab-separated file
peakfq (watstore) format
Reselect output format
Water
Year
Date Gage
Height
(feet)
Stream-
flow
(cfs)
1925 1925-03-15 8.50 47,100
1926 1926-04-09 9.58 55,500
1927 1927-03-22 9.23 52,400
1928 1927-12-15 7.83 39,500
1929 1929-02-28 8.54 46,000
1930 1930-01-16 12.90 79,400
1931 1931-04-04 4.30 11,200
1932 1932-01-19 7.06 33,200
1933 1933-05-13 8.04 41,300
1934 1934-03-31 5.93 23,700
1935 1935-05-08 6.45 28,200
1936 1936-02-29 9.40 53,900
1939 1939-03-14 9.77 58,800
1940 1940-03-05 8.781 42,500
1941 1941-01-04 3.80 8,550
1942 1942-04-11 7.93 43,200
1943 1943-05-19 13.10 80,800
1944 1944-04-13 11.05 65,900
1945 1945-05-18 8.40 46,300
1946 1946-06-14 6.60 30,100
1947 1947-06-04 7.77 41,600
1948 1948-03-23 8.90 50,100
1949 1949-02-17 8.05 43,200
1950 1950-02-16 13.70 87,100
1951 1951-02-23 9.23 52,400
1952 1952-03-13 8.96 50,900
1953 1953-03-05 6.89 33,200
1954 1954-03-26 5.25 18,600
1955 1955-03-06 8.13 44,000
1956 1956-03-08 7.20 36,100
1957 1957-04-07 9.55 55,500
1958 1957-12-21 7.15 36,100
1959 1959-02-12 12.352 76,500
1960 1960-02-12 7.37 37,800
1961 1961-04-27 8.18 44,600
1962 1962-03-13 7.90 42,400
1963 1963-03-08 6.81 32,400
1964 1964-04-23 7.92 42,600
1965 1965-02-11 6.71 31,500
1966 1966-05-13 5.37 20,300
1967 1966-12-10 11.00 66,100
1968 1968-02-02 9.30 53,200
1969 1969-02-01 10.28 60,600
1970 1970-04-21 6.76 31,900
1971 1971-02-21 7.29 37,000
1972 1972-04-23 7.74 41,100
1973 1972-11-16 7.33 37,400
1974 1974-01-22 10.35 61,200
1975 1975-02-25 8.12 44,100
1979 1979-03-06 9.47 54,500
1980 1980-06-04 8.45 46,700
1981 1981-06-15 12.35 76,500
1982 1982-03-15 15.87 104,000
1983 1983-05-03 8.21 44,800
1984 1984-02-14 8.83 49,600
1985 1985-02-25 14.19 93,500
1986 1986-02-06 7.52 38,700
1987 1986-10-05 6.68 31,200
1988 1988-04-08 5.91 24,600
1989 1989-06-05 7.29 36,700
1990 1990-02-24 9.20 52,400
1991 1991-01-01 13.28 83,700
1992 1992-07-16 7.06 34,600
1993 1993-01-06 9.735 56,4002
1994 1994-04-13 9.32 53,300
1995 1995-04-12 7.91 42,400
1996 1996-01-19 8.29 45,400
1997 1997-03-01 10.37 61,300
1998 1998-04-11 8.90 50,100
1999 1999-01-24 11.73 71,700
2000 2000-06-26 6.23 25,900
2001 2001-02-11 7.77 41,000
2002 2002-02-02 8.56 47,500
2003 2003-05-11 9.60 55,500
2004 2004-06-15 9.55 55,100
2005 2005-01-14 13.20 83,100
2006 2005-12-29 8.18 44,600
2007 2007-08-23 9.92 57,900
2008 2008-02-08 13.97 89,100
2009 2009-03-11 12.99 81,500
2010 2010-05-23 7.11 34,200
2011 2011-05-27 11.79 72,100
2012 2011-12-01 12.02 73,900
2013 2013-01-14 8.77 49,100
2014 2013-12-24 9.18 52,200
2015 2015-06-29 13.12 79,900
2016 2015-12-30 8.43 46,200
2017 2017-05-06 9.97 57,400
2018 2018-02-22 8.80 49,000
2019 2019-05-18 8.93 49,900
2020 2020-05-20 9.74 55,800
?
  Peak Gage-Height Qualification Codes.
?
  Peak Streamflow Qualification Codes.